• Join FlightAware (Why Join?)
  • Login
  • US Flag 
04:35AM EDT


 

Airport Tracker/Info


-or-


 

Live Flight TrackerFlight Track Log ✈ N797SK ✈ 01-Jun-2012 ✈ KIAH - KRDU

Flight Track Log - Related Links

Times and Time Zones

All times are in EDT time to prevent confusion due to time zone crossing. See the N797SK flight status page for this flight to view local times or setup timezone preferences in your user account.

Time Position Orientation Groundspeed Altitude Reporting Facility
EDT Latitude Longitude Course Direction KTS MPH feet Rate Location/Type
11:37AM 29.9603 -95.3433 98° East 152 175 600  Level Houston Center
11:42AM 29.9069 -94.8911 96° East 335 386 12,000 1,980 Climbing Houston Center
11:43AM 29.8972 -94.7758 95° East 346 398 13,600 1,800 Climbing Houston Center
11:44AM 29.8875 -94.6556 95° East 362 417 15,700 1,860 Climbing Houston Center
11:45AM 29.8775 -94.5308 94° East 376 433 17,400 1,560 Climbing Houston Center
11:46AM 29.8697 -94.4014 95° East 401 461 18,900 1,680 Climbing Houston Center
11:47AM 29.8597 -94.2717 92° East 407 468 20,800 1,680 Climbing Houston Center
11:48AM 29.8558 -94.1567 90° East 407 468 22,300 1,320 Climbing Houston Center
11:49AM 29.8561 -94.0225 83° East 407 468 23,500 1,200 Climbing Houston Center
11:50AM 29.8708 -93.8864 84° East 407 468 24,700 1,200 Climbing Houston Center
11:51AM 29.8836 -93.7453 83° East 424 488 26,000 1,140 Climbing Houston Center
11:52AM 29.8981 -93.6042 83° East 436 502 27,000 1,020 Climbing Houston Center
11:53AM 29.9128 -93.4558 83° East 451 519 28,100 960 Climbing Houston Center
11:54AM 29.9272 -93.3100 82° East 456 525 29,000 1,260 Climbing Houston Center
11:55AM 29.9458 -93.1472 84° East 464 534 30,700 1,200 Climbing Houston Center
11:56AM 29.9597 -93.0014 84° East 464 534 31,500 960 Climbing Houston Center
11:57AM 29.9736 -92.8528 84° East 464 534 32,700 1,080 Climbing Houston Center
11:58AM 29.9875 -92.6994 85° East 464 534 33,700 960 Climbing Houston Center
11:59AM 29.9989 -92.5533 85° East 464 534 34,700 960 Climbing Houston Center
12:00PM 30.0103 -92.4069 84° East 464 534 35,700 840 Climbing Houston Center
12:01PM 30.0236 -92.2608 85° East 464 534 36,400 540 Climbing Houston Center
12:03PM 30.0433 -91.9681 85° East 459 528 37,400 480 Climbing Houston Center
12:04PM 30.0539 -91.8219 86° East 459 528 37,900 480 Climbing Houston Center
12:05PM 30.0625 -91.6900 84° East 459 528 38,400 480 Climbing Houston Center
12:06PM 30.0750 -91.5433 86° East 459 528 38,900 300 Climbing Houston Center
12:07PM 30.0850 -91.3947 85° East 459 528 39,000  Climbing Houston Center
12:08PM 30.0953 -91.2433 86° East 459 528 39,000  Level Houston Center
12:09PM 30.1050 -91.0992 86° East 459 528 39,000  Level Houston Center
12:10PM 30.1147 -90.9528 75° East 459 528 39,000  Level Houston Center
12:11PM 30.1475 -90.8108 74° East 454 522 39,000  Level Houston Center
12:12PM 30.1819 -90.6711 73° East 448 516 39,000  Level Houston Center
12:13PM 30.2186 -90.5339 74° East 448 516 39,000  Level Houston Center
12:14PM 30.2528 -90.3939 75° East 448 516 39,000  Level Houston Center
12:15PM 30.2847 -90.2542 73° East 448 516 39,000  Level Houston Center
12:16PM 30.3208 -90.1164 75° East 448 516 39,000  Level Houston Center
12:17PM 30.3525 -89.9811 74° East 443 510 39,000  Level Houston Center
12:18PM 30.3942 -89.8167 76° East 448 516 39,000  Level Houston Center
12:19PM 30.4236 -89.6767 74° East 454 522 39,000  Level Houston Center
12:20PM 30.4589 -89.5314 75° East 454 522 39,000  Level Houston Center
12:21PM 30.4922 -89.3908 75° East 454 522 39,000  Level Houston Center
12:22PM 30.5253 -89.2456 75° East 454 522 39,000  Level Houston Center
12:23PM 30.5581 -89.1000 74° East 454 522 39,000  Level Houston Center
12:24PM 30.5928 -88.9544 75° East 459 528 39,000  Level Houston Center
12:25PM 30.6272 -88.8064 75° East 464 534 39,000  Level Houston Center
12:26PM 30.6636 -88.6533 76° East 475 547 39,000  Level Houston Center
12:27PM 30.6956 -88.5003 69° East 475 547 39,000  Level Houston Center
12:28PM 30.7442 -88.3514 52° Northeast 481 554 39,000  Level Houston Center
12:29PM 30.8306 -88.2228 49° Northeast 492 566 39,000  Level Houston Center
12:30PM 30.9214 -88.1011 48° Northeast 492 566 39,000  Level Houston Center
12:31PM 31.0161 -87.9792 49° Northeast 497 572 39,000  Level Houston Center
12:32PM 31.1086 -87.8544 50° Northeast 497 572 39,000  Level Houston Center
12:35PM 31.3231 -87.5586 49° Northeast 498 573 39,000  Level Atlanta Center
12:36PM 31.4161 -87.4331 50° Northeast 498 573 39,000  Level Atlanta Center
12:37PM 31.4964 -87.3217 48° Northeast 498 573 39,000  Level Atlanta Center
12:38PM 31.5917 -87.1958 50° Northeast 504 580 39,000  Level Atlanta Center
12:39PM 31.6844 -87.0675 50° Northeast 504 580 39,000  Level Atlanta Center
12:40PM 31.7731 -86.9433 49° Northeast 504 580 39,000  Level Atlanta Center
12:41PM 31.8656 -86.8167 49° Northeast 504 580 39,000  Level Atlanta Center
12:42PM 31.9539 -86.6947 49° Northeast 494 568 39,000  Level Atlanta Center
12:43PM 32.0528 -86.5581 49° Northeast 489 563 39,000  Level Atlanta Center
12:44PM 32.1408 -86.4378 53° Northeast 489 563 39,000  Level Atlanta Center
12:45PM 32.2075 -86.3317 73° East 494 568 39,000  Level Atlanta Center
12:46PM 32.2547 -86.1486 79° East 474 545 39,000  Level Atlanta Center
12:47PM 32.2803 -85.9894 78° East 480 552 39,000  Level Atlanta Center
12:48PM 32.3097 -85.8281 76° East 491 565 39,000  Level Atlanta Center
12:49PM 32.3411 -85.6761 77° East 512 589 39,000  Level Atlanta Center
12:50PM 32.3747 -85.4972 79° East 512 589 39,000  Level Atlanta Center
12:51PM 32.4017 -85.3278 77° East 512 589 39,000  Level Atlanta Center
12:52PM 32.4325 -85.1636 77° East 512 589 39,000  Level Atlanta Center
12:53PM 32.4650 -84.9964 80° East 512 589 39,000  Level Atlanta Center
12:54PM 32.4892 -84.8342 77° East 507 583 39,000  Level Atlanta Center
12:55PM 32.5194 -84.6769 79° East 496 571 39,000  Level Atlanta Center
12:56PM 32.5450 -84.5217 78° East 488 562 39,000  Level Atlanta Center
12:57PM 32.5728 -84.3642 78° East 488 562 39,000  Level Atlanta Center
12:58PM 32.6003 -84.2042 78° East 488 562 39,000  Level Atlanta Center
12:59PM 32.6275 -84.0486 80° East 480 552 39,000  Level Atlanta Center
01:00PM 32.6503 -83.8883 75° East 486 559 39,000  Level Atlanta Center
01:01PM 32.6856 -83.7328 62° Northeast 486 559 39,000  Level Atlanta Center
01:02PM 32.7497 -83.5869 61° Northeast 481 554 39,000 -60 Level Atlanta Center
01:03PM 32.8181 -83.4383 61° Northeast 492 566 38,900 -600 Descending Atlanta Center
01:04PM 32.8839 -83.2942 64° Northeast 492 566 37,900 -960 Descending Atlanta Center
01:05PM 32.9375 -83.1650 62° Northeast 487 560 37,000 -960 Descending Atlanta Center
01:06PM 33.0031 -83.0183 62° Northeast 487 560 36,000 -1,080 Descending Atlanta Center
01:07PM 33.0747 -82.8539 62° Northeast 498 573 34,900 -1,080 Descending Atlanta Center
01:08PM 33.1400 -82.7067 62° Northeast 498 573 33,900 -960 Descending Atlanta Center
01:09PM 33.2072 -82.5542 61° Northeast 498 573 33,000 -480 Descending Atlanta Center
01:10PM 33.2742 -82.4089 53° Northeast 498 573 33,000  Level Atlanta Center
01:11PM 33.3619 -82.2706 51° Northeast 506 582 33,000  Level Atlanta Center
01:13PM 33.5597 -81.9753 44° Northeast 536 617 33,000  Level Jacksonville Center
01:14PM 33.6653 -81.8519 43° Northeast 531 611 33,000  Level Jacksonville Center
01:15PM 33.7725 -81.7308 43° Northeast 521 600 33,000 -300 Level Jacksonville Center
01:16PM 33.8819 -81.6092 42° Northeast 521 600 32,400 -840 Descending Jacksonville Center
01:17PM 33.9853 -81.4950 46° Northeast 515 593 31,400 -1,140 Descending Jacksonville Center
01:18PM 34.0797 -81.3783 57° Northeast 495 570 30,200 -1,380 Descending Jacksonville Center
01:19PM 34.1531 -81.2414 57° Northeast 490 564 28,700 -1,560 Descending Jacksonville Center
01:20PM 34.2244 -81.1094 56° Northeast 484 557 27,200 -900 Descending Jacksonville Center
01:21PM 34.2997 -80.9722 58° Northeast 456 525 27,000 -180 Descending Jacksonville Center
01:22PM 34.3706 -80.8372 57° Northeast 463 533 26,900 -840 Descending Jacksonville Center
01:23PM 34.4414 -80.7047 57° Northeast 463 533 25,400 -1,500 Descending Jacksonville Center
01:24PM 34.5100 -80.5769 57° Northeast 482 555 24,000 -1,500 Descending Jacksonville Center
01:25PM 34.5783 -80.4492 59° Northeast 470 541 22,500 -1,500 Descending Jacksonville Center
01:26PM 34.6425 -80.3211 58° Northeast 452 520 21,000 -960 Descending Jacksonville Center
01:26PM 34.6775 -80.2539 56° Northeast 410 472 21,000  Level Washington Center
01:27PM 34.7403 -80.1414 53° Northeast 379 436 21,000  Level Washington Center
01:28PM 34.8069 -80.0339 40° Northeast 384 442 21,000  Level Washington Center
01:29PM 34.9047 -79.9328 38° Northeast 428 493 21,000  Level Washington Center
01:30PM 35.0106 -79.8319 36° Northeast 466 536 21,000 -660 Level Washington Center
01:31PM 35.1139 -79.7408 36° Northeast 472 543 19,800 -1,680 Descending Washington Center
01:32PM 35.2108 -79.6544 36° Northeast 458 527 17,700 -2,340 Descending Washington Center
01:33PM 35.3097 -79.5678 36° Northeast 438 504 15,100 -2,340 Descending Washington Center
01:34PM 35.3978 -79.4881 37° Northeast 426 490 13,100 -1,980 Descending Washington Center
01:35PM 35.4903 -79.4033 49° Northeast 402 463 11,200 -1,080 Descending Washington Center
01:36PM 35.5536 -79.3144 57° Northeast 353 406 11,000 -120 Descending Washington Center
01:37PM 35.5981 -79.2294 57° Northeast 329 379 11,000 -540 Level Washington Center
01:38PM 35.6489 -79.1347 55° Northeast 306 352 10,000 -1,020 Descending Washington Center
01:39PM 35.6906 -79.0625 57° Northeast 292 336 9,100 -1,020 Descending Washington Center
01:40PM 35.7325 -78.9825 42° Northeast 277 319 8,100 -540 Descending Washington Center
01:42PM 35.7928 -78.9158 North 277 319 8,000 -60 Descending Washington Center
01:42PM 35.8619 -78.9058 20° North 274 315 8,000 -180 Level Washington Center
01:43PM 35.9358 -78.8731 36° Northeast 257 296 7,700 -1,140 Descending Washington Center
01:44PM 35.9978 -78.8167 57° Northeast 274 315 5,600 -1,920 Descending Washington Center
01:46PM 36.0375 -78.7411 139° Southeast 269 310 3,800 -1,500 Descending Washington Center
01:47PM 36.0008 -78.7011 139° Southeast 189 217 2,500 -1,260 Descending Washington Center